createdAt,value
2022-08-26T00:00:48.385Z,0.00
2022-08-26T00:01:48.399Z,0.00
2022-08-26T00:02:48.566Z,0.00
2022-08-26T00:03:48.369Z,0.00
2022-08-26T00:04:48.337Z,0.00
2022-08-26T00:05:48.334Z,0.00
2022-08-26T00:06:48.315Z,0.00
2022-08-26T00:07:48.330Z,0.00
2022-08-26T00:08:48.297Z,0.00
2022-08-26T00:09:48.282Z,0.00
2022-08-26T00:10:48.265Z,0.00
2022-08-26T00:11:48.256Z,0.00
2022-08-26T00:12:48.245Z,0.00
2022-08-26T00:13:49.484Z,0.00
2022-08-26T00:14:48.214Z,0.00
2022-08-26T00:15:48.214Z,0.00
2022-08-26T00:16:49.067Z,0.00
2022-08-26T00:17:48.192Z,0.00
2022-08-26T00:18:48.174Z,0.00
2022-08-26T00:19:48.173Z,0.00
2022-08-26T00:20:48.153Z,0.00
2022-08-26T00:21:48.843Z,0.00
2022-08-26T00:22:48.124Z,0.00
2022-08-26T00:23:48.120Z,0.00
2022-08-26T00:24:48.200Z,0.00
2022-08-26T00:25:48.093Z,0.00
2022-08-26T00:26:48.081Z,0.00
2022-08-26T00:27:48.071Z,0.00
2022-08-26T00:28:48.052Z,0.00
2022-08-26T00:29:48.075Z,0.00
2022-08-26T00:30:48.973Z,0.00
2022-08-26T00:31:48.069Z,0.00
2022-08-26T00:32:48.011Z,0.00
2022-08-26T00:33:48.003Z,0.00
2022-08-26T00:34:47.993Z,0.00
2022-08-26T00:35:47.973Z,0.00
2022-08-26T00:36:49.246Z,0.00
2022-08-26T00:37:47.952Z,0.00
2022-08-26T00:38:47.953Z,0.00
2022-08-26T00:39:48.006Z,0.00
2022-08-26T00:40:47.918Z,0.00
2022-08-26T00:41:47.902Z,0.00
2022-08-26T00:42:47.891Z,0.00
2022-08-26T00:43:48.106Z,0.00
2022-08-26T00:44:47.870Z,0.00
2022-08-26T00:45:47.938Z,0.00
2022-08-26T00:46:47.843Z,0.00
2022-08-26T00:47:47.834Z,0.00
2022-08-26T00:48:47.822Z,0.00
2022-08-26T00:49:47.811Z,0.00
2022-08-26T00:50:47.814Z,0.00
2022-08-26T00:51:47.791Z,0.00
2022-08-26T00:52:48.269Z,0.00
2022-08-26T00:53:47.814Z,0.00
2022-08-26T00:54:47.826Z,0.00
2022-08-26T00:55:47.751Z,0.00
2022-08-26T00:56:47.741Z,0.00
2022-08-26T00:57:47.720Z,0.00
2022-08-26T00:58:47.703Z,0.00
2022-08-26T00:59:47.851Z,0.00
2022-08-26T01:00:47.747Z,0.00
2022-08-26T01:01:47.764Z,0.00
2022-08-26T01:02:47.684Z,0.00
2022-08-26T01:03:47.651Z,0.00
2022-08-26T01:04:47.631Z,0.00
2022-08-26T01:05:48.631Z,0.00
2022-08-26T01:06:47.620Z,0.00
2022-08-26T01:07:47.600Z,0.00
2022-08-26T01:08:47.588Z,0.00
2022-08-26T01:09:47.579Z,0.00
2022-08-26T01:10:47.569Z,0.00
2022-08-26T01:11:47.570Z,0.00
2022-08-26T01:12:47.539Z,0.00
2022-08-26T01:13:47.543Z,0.00
2022-08-26T01:14:47.519Z,0.00
2022-08-26T01:15:47.512Z,0.00
2022-08-26T01:16:47.536Z,0.00
2022-08-26T01:17:47.488Z,0.00
2022-08-26T01:18:47.479Z,0.00
2022-08-26T01:19:47.460Z,0.00
2022-08-26T01:20:47.449Z,0.00
2022-08-26T01:21:47.439Z,0.00
2022-08-26T01:22:47.437Z,0.00
2022-08-26T01:23:47.419Z,0.00
2022-08-26T01:24:47.399Z,0.00
2022-08-26T01:25:47.388Z,0.00
2022-08-26T01:26:47.378Z,0.00
2022-08-26T01:27:49.225Z,0.00
2022-08-26T01:28:51.672Z,0.00
2022-08-26T01:29:48.301Z,0.00
2022-08-26T01:30:47.328Z,0.00
2022-08-26T01:31:47.382Z,0.00
2022-08-26T01:32:47.318Z,0.00
2022-08-26T01:33:47.308Z,0.00
2022-08-26T01:34:47.287Z,0.00
2022-08-26T01:35:47.278Z,0.00
2022-08-26T01:36:51.198Z,0.00
2022-08-26T01:37:47.265Z,0.00
2022-08-26T01:38:47.237Z,0.00
2022-08-26T01:39:47.304Z,0.00
2022-08-26T01:40:47.211Z,0.00
2022-08-26T01:41:47.209Z,0.00
2022-08-26T01:42:48.213Z,0.00
2022-08-26T01:43:47.176Z,0.00
2022-08-26T01:44:47.168Z,0.00
2022-08-26T01:45:47.198Z,0.00
2022-08-26T01:46:47.168Z,0.00
2022-08-26T01:47:47.136Z,0.00
2022-08-26T01:48:47.313Z,0.00
2022-08-26T01:49:48.122Z,0.00
2022-08-26T01:50:47.105Z,0.00
2022-08-26T01:51:47.087Z,0.00
2022-08-26T01:52:49.955Z,0.00
2022-08-26T01:53:48.067Z,0.00
2022-08-26T01:54:50.536Z,0.00
2022-08-26T01:55:47.045Z,0.00
2022-08-26T01:56:47.035Z,0.00
2022-08-26T01:57:47.036Z,0.00
2022-08-26T01:58:47.005Z,0.00
2022-08-26T01:59:47.025Z,0.00
2022-08-26T02:00:47.075Z,0.00
2022-08-26T02:01:46.965Z,0.00
2022-08-26T02:02:46.965Z,0.00
2022-08-26T02:03:46.955Z,0.00
2022-08-26T02:04:46.993Z,0.00
2022-08-26T02:05:46.937Z,0.00
2022-08-26T02:06:46.918Z,0.00
2022-08-26T02:07:46.914Z,0.00
2022-08-26T02:08:46.912Z,0.00
2022-08-26T02:09:46.875Z,0.00
2022-08-26T02:10:46.865Z,0.00
2022-08-26T02:11:46.854Z,0.00
2022-08-26T02:12:46.863Z,0.00
2022-08-26T02:13:46.825Z,0.00
2022-08-26T02:14:46.824Z,0.00
2022-08-26T02:15:46.804Z,0.00
2022-08-26T02:16:46.865Z,0.00
2022-08-26T02:17:46.786Z,0.00
2022-08-26T02:18:46.873Z,0.00
2022-08-26T02:19:46.766Z,0.00
2022-08-26T02:20:46.766Z,0.00
2022-08-26T02:21:51.277Z,0.00
2022-08-26T02:22:47.725Z,0.00
2022-08-26T02:23:46.713Z,0.00
2022-08-26T02:24:46.704Z,0.00
2022-08-26T02:25:46.714Z,0.00
2022-08-26T02:26:46.682Z,0.00
2022-08-26T02:27:46.672Z,0.00
2022-08-26T02:28:46.654Z,0.00
2022-08-26T02:29:46.642Z,0.00
2022-08-26T02:30:46.640Z,0.00
2022-08-26T02:31:46.685Z,0.00
2022-08-26T02:32:46.610Z,0.00
2022-08-26T02:33:46.602Z,0.00
2022-08-26T02:34:46.582Z,0.00
2022-08-26T02:35:46.582Z,0.00
2022-08-26T02:36:46.563Z,0.00
2022-08-26T02:37:46.570Z,0.00
2022-08-26T02:38:46.551Z,0.00
2022-08-26T02:39:46.531Z,0.00
2022-08-26T02:40:46.511Z,0.00
2022-08-26T02:41:46.512Z,0.00
2022-08-26T02:42:46.496Z,0.00
2022-08-26T02:43:46.492Z,0.00
2022-08-26T02:44:46.473Z,0.00
2022-08-26T02:45:46.471Z,0.00
2022-08-26T02:46:46.945Z,0.00
2022-08-26T02:47:46.439Z,0.00
2022-08-26T02:48:46.431Z,0.00
2022-08-26T02:49:47.195Z,0.00
2022-08-26T02:50:46.401Z,0.00
2022-08-26T02:51:46.390Z,0.00
2022-08-26T02:52:46.379Z,0.00
2022-08-26T02:53:46.369Z,0.00
2022-08-26T02:54:46.361Z,0.00
2022-08-26T02:55:46.342Z,0.00
2022-08-26T02:56:46.330Z,0.00
2022-08-26T02:57:46.320Z,0.00
2022-08-26T02:58:46.311Z,0.00
2022-08-26T02:59:46.312Z,0.00
2022-08-26T03:00:53.050Z,0.00
2022-08-26T03:01:47.341Z,0.00
2022-08-26T03:02:46.260Z,0.00
2022-08-26T03:03:46.255Z,0.00
2022-08-26T03:04:58.189Z,0.00
2022-08-26T03:05:47.230Z,0.00
2022-08-26T03:06:47.052Z,0.00
2022-08-26T03:07:47.219Z,0.00
2022-08-26T03:08:46.201Z,0.00
2022-08-26T03:09:46.180Z,0.00
2022-08-26T03:10:46.170Z,0.00
2022-08-26T03:11:46.159Z,0.00
2022-08-26T03:12:47.399Z,0.00
2022-08-26T03:13:46.150Z,0.00
2022-08-26T03:14:46.120Z,0.00
2022-08-26T03:15:47.708Z,0.00
2022-08-26T03:16:48.526Z,0.00
2022-08-26T03:17:46.089Z,0.00
2022-08-26T03:18:52.189Z,0.00
2022-08-26T03:19:49.015Z,0.00
2022-08-26T03:20:47.050Z,0.00
2022-08-26T03:21:47.369Z,0.00
2022-08-26T03:22:46.027Z,0.00
2022-08-26T03:23:46.018Z,0.00
2022-08-26T03:24:46.622Z,0.00
2022-08-26T03:25:45.998Z,0.00
2022-08-26T03:26:52.479Z,0.00
2022-08-26T03:27:46.967Z,0.00
2022-08-26T03:28:45.958Z,0.00
2022-08-26T03:29:50.390Z,0.00
2022-08-26T03:30:45.948Z,0.00
2022-08-26T03:31:46.892Z,0.00
2022-08-26T03:32:45.909Z,0.00
2022-08-26T03:33:45.905Z,0.00
2022-08-26T03:34:45.887Z,0.00
2022-08-26T03:35:45.876Z,0.00
2022-08-26T03:36:45.878Z,0.00
2022-08-26T03:37:45.856Z,0.00
2022-08-26T03:38:45.858Z,0.00
2022-08-26T03:39:45.836Z,0.00
2022-08-26T03:40:45.816Z,0.00
2022-08-26T03:41:45.813Z,0.00
2022-08-26T03:42:45.795Z,0.00
2022-08-26T03:43:45.786Z,0.00
2022-08-26T03:44:45.796Z,0.00
2022-08-26T03:45:46.026Z,0.00
2022-08-26T03:46:45.777Z,0.00
2022-08-26T03:47:45.743Z,0.00
2022-08-26T03:48:45.751Z,0.00
2022-08-26T03:49:45.715Z,0.00
2022-08-26T03:50:45.717Z,0.00
2022-08-26T03:51:45.735Z,0.00
2022-08-26T03:52:45.675Z,0.00
2022-08-26T03:53:45.664Z,0.00
2022-08-26T03:54:45.655Z,0.00
2022-08-26T03:55:45.647Z,0.00
2022-08-26T03:56:46.478Z,0.00
2022-08-26T03:57:45.624Z,0.00
2022-08-26T03:58:45.940Z,0.00
2022-08-26T03:59:45.602Z,0.00
2022-08-26T04:00:45.585Z,0.00
2022-08-26T04:01:45.595Z,0.00
2022-08-26T04:02:45.618Z,4.00
2022-08-26T04:03:45.559Z,0.00
2022-08-26T04:04:45.536Z,0.00
2022-08-26T04:05:45.533Z,0.00
2022-08-26T04:06:45.523Z,4.00
2022-08-26T04:07:45.504Z,0.00
2022-08-26T04:08:45.503Z,4.00
2022-08-26T04:09:45.483Z,0.00
2022-08-26T04:10:45.473Z,4.00
2022-08-26T04:11:45.463Z,4.00
2022-08-26T04:12:45.442Z,4.00
2022-08-26T04:13:45.435Z,4.00
2022-08-26T04:14:45.433Z,4.00
2022-08-26T04:15:45.429Z,8.00
2022-08-26T04:16:45.402Z,8.00
2022-08-26T04:17:45.395Z,12.00
2022-08-26T04:18:46.930Z,12.00
2022-08-26T04:19:45.362Z,12.00
2022-08-26T04:20:45.362Z,16.00
2022-08-26T04:21:45.342Z,16.00
2022-08-26T04:22:45.330Z,16.00
2022-08-26T04:23:46.937Z,20.00
2022-08-26T04:24:45.311Z,24.00
2022-08-26T04:25:45.312Z,28.00
2022-08-26T04:26:45.284Z,28.00
2022-08-26T04:27:45.271Z,32.00
2022-08-26T04:28:45.261Z,32.00
2022-08-26T04:29:45.252Z,36.00
2022-08-26T04:30:45.238Z,40.00
2022-08-26T04:31:45.338Z,44.00
2022-08-26T04:32:45.220Z,44.00
2022-08-26T04:33:45.211Z,52.00
2022-08-26T04:34:45.192Z,56.00
2022-08-26T04:35:45.181Z,60.00
2022-08-26T04:36:45.164Z,64.00
2022-08-26T04:37:45.171Z,68.00
2022-08-26T04:38:45.141Z,72.00
2022-08-26T04:39:45.130Z,80.00
2022-08-26T04:40:46.838Z,84.00
2022-08-26T04:41:45.109Z,92.00
2022-08-26T04:42:45.090Z,96.00
2022-08-26T04:43:45.547Z,104.00
2022-08-26T04:44:45.071Z,112.00
2022-08-26T04:45:45.069Z,116.00
2022-08-26T04:46:45.076Z,120.00
2022-08-26T04:47:45.049Z,128.00
2022-08-26T04:48:45.029Z,132.00
2022-08-26T04:49:45.026Z,140.00
2022-08-26T04:50:45.011Z,144.00
2022-08-26T04:51:45.002Z,148.00
2022-08-26T04:52:44.998Z,156.00
2022-08-26T04:53:44.969Z,160.00
2022-08-26T04:54:44.959Z,164.00
2022-08-26T04:55:45.083Z,168.00
2022-08-26T04:56:44.928Z,176.00
2022-08-26T04:57:44.918Z,176.00
2022-08-26T04:58:44.927Z,180.00
2022-08-26T04:59:44.899Z,188.00
2022-08-26T05:00:44.888Z,192.00
2022-08-26T05:01:44.950Z,196.00
2022-08-26T05:02:44.858Z,196.00
2022-08-26T05:03:44.878Z,200.00
2022-08-26T05:04:44.848Z,204.00
2022-08-26T05:05:44.827Z,204.00
2022-08-26T05:06:44.817Z,212.00
2022-08-26T05:07:44.807Z,212.00
2022-08-26T05:08:44.808Z,212.00
2022-08-26T05:09:44.798Z,216.00
2022-08-26T05:10:44.768Z,220.00
2022-08-26T05:11:44.773Z,224.00
2022-08-26T05:12:44.748Z,228.00
2022-08-26T05:13:44.737Z,232.00
2022-08-26T05:14:44.716Z,232.00
2022-08-26T05:15:44.762Z,236.00
2022-08-26T05:16:44.698Z,240.00
2022-08-26T05:17:44.688Z,240.00
2022-08-26T05:18:44.693Z,248.00
2022-08-26T05:19:44.666Z,248.00
2022-08-26T05:20:44.671Z,256.00
2022-08-26T05:21:44.636Z,260.00
2022-08-26T05:22:44.645Z,268.00
2022-08-26T05:23:44.616Z,276.00
2022-08-26T05:24:44.605Z,284.00
2022-08-26T05:25:44.605Z,292.00
2022-08-26T05:26:44.868Z,296.00
2022-08-26T05:27:44.574Z,304.00
2022-08-26T05:28:44.566Z,312.00
2022-08-26T05:29:44.545Z,316.00
2022-08-26T05:30:44.605Z,320.00
2022-08-26T05:31:44.526Z,328.00
2022-08-26T05:32:44.518Z,328.00
2022-08-26T05:33:44.503Z,340.00
2022-08-26T05:34:44.492Z,344.00
2022-08-26T05:35:44.484Z,348.00
2022-08-26T05:36:45.195Z,356.00
2022-08-26T05:37:44.456Z,364.00
2022-08-26T05:38:44.445Z,372.00
2022-08-26T05:39:48.833Z,376.00
2022-08-26T05:40:45.424Z,384.00
2022-08-26T05:41:44.749Z,396.00
2022-08-26T05:42:44.395Z,400.00
2022-08-26T05:43:44.386Z,408.00
2022-08-26T05:44:54.135Z,420.00
2022-08-26T05:45:46.215Z,428.00
2022-08-26T05:46:44.390Z,436.00
2022-08-26T05:47:44.346Z,448.00
2022-08-26T05:48:44.572Z,460.00
2022-08-26T05:49:49.468Z,472.00
2022-08-26T05:50:45.304Z,480.00
2022-08-26T05:51:44.284Z,492.00
2022-08-26T05:52:44.285Z,496.00
2022-08-26T05:53:54.517Z,512.00
2022-08-26T05:54:45.253Z,520.00
2022-08-26T05:55:44.243Z,532.00
2022-08-26T05:56:44.234Z,540.00
2022-08-26T05:57:44.223Z,552.00
2022-08-26T05:58:44.222Z,560.00
2022-08-26T05:59:44.194Z,568.00
2022-08-26T06:00:44.183Z,572.00
2022-08-26T06:01:44.209Z,572.00
2022-08-26T06:02:44.232Z,568.00
2022-08-26T06:03:44.150Z,560.00
2022-08-26T06:04:44.140Z,552.00
2022-08-26T06:05:44.147Z,544.00
2022-08-26T06:06:45.018Z,540.00
2022-08-26T06:07:44.102Z,532.00
2022-08-26T06:08:44.102Z,524.00
2022-08-26T06:09:44.083Z,524.00
2022-08-26T06:10:44.071Z,532.00
2022-08-26T06:11:44.051Z,544.00
2022-08-26T06:12:44.041Z,560.00
2022-08-26T06:13:44.033Z,576.00
2022-08-26T06:14:44.032Z,580.00
2022-08-26T06:15:44.257Z,600.00
2022-08-26T06:16:44.017Z,608.00
2022-08-26T06:17:43.990Z,608.00
2022-08-26T06:18:43.971Z,600.00
2022-08-26T06:19:44.061Z,576.00
2022-08-26T06:20:44.002Z,568.00
2022-08-26T06:21:44.939Z,564.00
2022-08-26T06:22:43.930Z,564.00
2022-08-26T06:23:43.920Z,568.00
2022-08-26T06:24:43.930Z,600.00
2022-08-26T06:25:43.890Z,636.00
2022-08-26T06:26:43.881Z,692.00
2022-08-26T06:27:44.869Z,708.00
2022-08-26T06:28:45.545Z,652.00
2022-08-26T06:29:43.849Z,668.00
2022-08-26T06:30:43.889Z,740.00
2022-08-26T06:31:43.833Z,788.00
2022-08-26T06:32:43.810Z,792.00
2022-08-26T06:33:43.809Z,812.00
2022-08-26T06:34:43.788Z,820.00
2022-08-26T06:35:43.780Z,816.00
2022-08-26T06:36:43.987Z,824.00
2022-08-26T06:37:43.758Z,828.00
2022-08-26T06:38:43.739Z,840.00
2022-08-26T06:39:43.729Z,836.00
2022-08-26T06:40:43.727Z,832.00
2022-08-26T06:41:43.708Z,836.00
2022-08-26T06:42:43.713Z,848.00
2022-08-26T06:43:43.708Z,864.00
2022-08-26T06:44:44.760Z,888.00
2022-08-26T06:45:43.681Z,884.00
2022-08-26T06:46:44.344Z,848.00
2022-08-26T06:47:43.638Z,884.00
2022-08-26T06:48:43.629Z,876.00
2022-08-26T06:49:44.321Z,900.00
2022-08-26T06:50:43.598Z,904.00
2022-08-26T06:51:43.587Z,876.00
2022-08-26T06:52:43.598Z,896.00
2022-08-26T06:53:43.576Z,880.00
2022-08-26T06:54:44.203Z,884.00
2022-08-26T06:55:43.547Z,872.00
2022-08-26T06:56:43.540Z,888.00
2022-08-26T06:57:43.540Z,880.00
2022-08-26T06:58:43.517Z,804.00
2022-08-26T06:59:43.498Z,772.00
2022-08-26T07:00:47.354Z,768.00
2022-08-26T07:01:43.845Z,760.00
2022-08-26T07:02:46.864Z,756.00
2022-08-26T07:03:43.457Z,760.00
2022-08-26T07:04:43.439Z,756.00
2022-08-26T07:05:43.427Z,760.00
2022-08-26T07:06:43.453Z,756.00
2022-08-26T07:07:43.416Z,752.00
2022-08-26T07:08:43.387Z,748.00
2022-08-26T07:09:43.387Z,744.00
2022-08-26T07:10:43.366Z,744.00
2022-08-26T07:11:43.356Z,740.00
2022-08-26T07:12:43.356Z,748.00
2022-08-26T07:13:43.337Z,756.00
2022-08-26T07:14:43.745Z,784.00
2022-08-26T07:15:43.335Z,760.00
2022-08-26T07:16:43.315Z,736.00
2022-08-26T07:17:43.286Z,752.00
2022-08-26T07:18:44.845Z,724.00
2022-08-26T07:19:43.265Z,724.00
2022-08-26T07:20:43.246Z,728.00
2022-08-26T07:21:43.245Z,724.00
2022-08-26T07:22:43.234Z,732.00
2022-08-26T07:23:43.242Z,732.00
2022-08-26T07:24:43.967Z,744.00
2022-08-26T07:25:43.185Z,764.00
2022-08-26T07:26:43.288Z,772.00
2022-08-26T07:27:43.185Z,808.00
2022-08-26T07:28:43.154Z,808.00
2022-08-26T07:29:43.166Z,816.00
2022-08-26T07:30:43.163Z,832.00
2022-08-26T07:31:43.194Z,848.00
2022-08-26T07:32:43.125Z,884.00
2022-08-26T07:33:43.097Z,892.00
2022-08-26T07:34:43.086Z,900.00
2022-08-26T07:35:43.075Z,912.00
2022-08-26T07:36:43.065Z,928.00
2022-08-26T07:37:43.056Z,936.00
2022-08-26T07:38:43.044Z,936.00
2022-08-26T07:39:43.260Z,944.00
2022-08-26T07:40:43.013Z,952.00
2022-08-26T07:41:43.004Z,960.00
2022-08-26T07:42:42.992Z,968.00
2022-08-26T07:43:42.994Z,980.00
2022-08-26T07:44:42.975Z,996.00
2022-08-26T07:45:42.998Z,1016.00
2022-08-26T07:46:44.166Z,1032.00
2022-08-26T07:47:42.947Z,1044.00
2022-08-26T07:48:46.180Z,1056.00
2022-08-26T07:49:42.996Z,1064.00
2022-08-26T07:50:50.052Z,1064.00
2022-08-26T07:51:43.883Z,1064.00
2022-08-26T07:52:42.873Z,1080.00
2022-08-26T07:53:42.863Z,1088.00
2022-08-26T07:54:42.854Z,1104.00
2022-08-26T07:55:42.854Z,1124.00
2022-08-26T07:56:44.249Z,1152.00
2022-08-26T07:57:42.821Z,1180.00
2022-08-26T07:58:42.805Z,1192.00
2022-08-26T07:59:42.812Z,1196.00
2022-08-26T08:00:42.782Z,1196.00
2022-08-26T08:01:45.048Z,1176.00
2022-08-26T08:02:42.754Z,1156.00
2022-08-26T08:03:42.744Z,1156.00
2022-08-26T08:04:42.791Z,1144.00
2022-08-26T08:05:42.723Z,1148.00
2022-08-26T08:06:43.895Z,1156.00
2022-08-26T08:07:45.218Z,1156.00
2022-08-26T08:08:42.684Z,1156.00
2022-08-26T08:09:42.692Z,1160.00
2022-08-26T08:10:42.662Z,1160.00
2022-08-26T08:11:43.653Z,1160.00
2022-08-26T08:12:42.644Z,1164.00
2022-08-26T08:13:42.632Z,1172.00
2022-08-26T08:14:42.622Z,1176.00
2022-08-26T08:15:42.621Z,1184.00
2022-08-26T08:16:46.755Z,1188.00
2022-08-26T08:17:43.613Z,1196.00
2022-08-26T08:18:42.572Z,1208.00
2022-08-26T08:19:42.562Z,1216.00
2022-08-26T08:20:47.648Z,1232.00
2022-08-26T08:21:43.553Z,1244.00
2022-08-26T08:22:42.531Z,1256.00
2022-08-26T08:23:42.511Z,1268.00
2022-08-26T08:24:42.500Z,1280.00
2022-08-26T08:25:42.491Z,1292.00
2022-08-26T08:26:42.551Z,1300.00
2022-08-26T08:27:42.472Z,1304.00
2022-08-26T08:28:42.454Z,1304.00
2022-08-26T08:29:42.441Z,1308.00
2022-08-26T08:30:42.464Z,1312.00
2022-08-26T08:31:56.948Z,1316.00
2022-08-26T08:32:43.414Z,1320.00
2022-08-26T08:33:42.399Z,1328.00
2022-08-26T08:35:42.371Z,1340.00
2022-08-26T08:36:42.374Z,1348.00
2022-08-26T08:37:42.353Z,1364.00
2022-08-26T08:38:42.343Z,1372.00
2022-08-26T08:39:42.321Z,1380.00
2022-08-26T08:40:42.331Z,1388.00
2022-08-26T08:41:42.312Z,1396.00
2022-08-26T08:42:42.370Z,1400.00
2022-08-26T08:43:42.281Z,1408.00
2022-08-26T08:44:42.272Z,1416.00
2022-08-26T08:45:42.277Z,1428.00
2022-08-26T08:46:42.261Z,1440.00
2022-08-26T08:47:42.238Z,1452.00
2022-08-26T08:48:42.221Z,1468.00
2022-08-26T08:49:42.219Z,1488.00
2022-08-26T08:50:42.208Z,1444.00
2022-08-26T08:51:42.200Z,1536.00
2022-08-26T08:52:42.182Z,1556.00
2022-08-26T08:53:42.160Z,1580.00
2022-08-26T08:54:42.162Z,1608.00
2022-08-26T08:55:42.141Z,1644.00
2022-08-26T08:56:42.130Z,1668.00
2022-08-26T08:57:42.140Z,1704.00
2022-08-26T08:58:42.122Z,1728.00
2022-08-26T08:59:42.097Z,1748.00
2022-08-26T09:00:42.081Z,1788.00
2022-08-26T09:01:42.103Z,1812.00
2022-08-26T09:02:42.106Z,1848.00
2022-08-26T09:03:42.069Z,1888.00
2022-08-26T09:04:42.058Z,1932.00
2022-08-26T09:05:46.681Z,1956.00
2022-08-26T09:06:43.017Z,1948.00
2022-08-26T09:07:42.000Z,1924.00
2022-08-26T09:08:41.991Z,1944.00
2022-08-26T09:09:41.980Z,1956.00
2022-08-26T09:10:41.989Z,1968.00
2022-08-26T09:11:41.957Z,1984.00
2022-08-26T09:12:41.960Z,2024.00
2022-08-26T09:13:42.263Z,2060.00
2022-08-26T09:14:41.921Z,2084.00
2022-08-26T09:15:41.909Z,2072.00
2022-08-26T09:16:41.943Z,2092.00
2022-08-26T09:17:41.888Z,2096.00
2022-08-26T09:18:41.900Z,2120.00
2022-08-26T09:19:41.859Z,2140.00
2022-08-26T09:20:41.849Z,2164.00
2022-08-26T09:21:41.839Z,2188.00
2022-08-26T09:22:44.300Z,2200.00
2022-08-26T09:23:42.889Z,2116.00
2022-08-26T09:24:48.212Z,2248.00
2022-08-26T09:25:42.818Z,2268.00
2022-08-26T09:26:41.787Z,2260.00
2022-08-26T09:27:41.771Z,2252.00
2022-08-26T09:28:41.769Z,2268.00
2022-08-26T09:29:41.760Z,2276.00
2022-08-26T09:30:41.760Z,2288.00
2022-08-26T09:31:41.737Z,2288.00
2022-08-26T09:32:41.719Z,2276.00
2022-08-26T09:33:41.712Z,2284.00
2022-08-26T09:34:41.700Z,2300.00
2022-08-26T09:35:41.679Z,2320.00
2022-08-26T09:36:41.710Z,2328.00
2022-08-26T09:37:41.726Z,2320.00
2022-08-26T09:38:41.648Z,2324.00
2022-08-26T09:39:41.631Z,2324.00
2022-08-26T09:40:41.628Z,2308.00
2022-08-26T09:41:41.609Z,2312.00
2022-08-26T09:42:41.643Z,2320.00
2022-08-26T09:43:41.597Z,2308.00
2022-08-26T09:44:41.590Z,2308.00
2022-08-26T09:45:41.610Z,2260.00
2022-08-26T09:46:42.552Z,2272.00
2022-08-26T09:47:41.539Z,2260.00
2022-08-26T09:48:41.538Z,2280.00
2022-08-26T09:49:41.519Z,2280.00
2022-08-26T09:50:41.515Z,2256.00
2022-08-26T09:51:41.489Z,2224.00
2022-08-26T09:52:42.712Z,2292.00
2022-08-26T09:53:41.482Z,2292.00
2022-08-26T09:54:41.459Z,2292.00
2022-08-26T09:55:41.449Z,2308.00
2022-08-26T09:56:41.440Z,2304.00
2022-08-26T09:57:41.430Z,2292.00
2022-08-26T09:58:41.960Z,2272.00
2022-08-26T09:59:41.417Z,2264.00
2022-08-26T10:00:41.390Z,2252.00
2022-08-26T10:01:41.467Z,2232.00
2022-08-26T10:02:41.369Z,2200.00
2022-08-26T10:03:42.351Z,2116.00
2022-08-26T10:04:41.396Z,2088.00
2022-08-26T10:05:41.340Z,2052.00
2022-08-26T10:06:41.319Z,2084.00
2022-08-26T10:07:41.309Z,2104.00
2022-08-26T10:08:41.298Z,2124.00
2022-08-26T10:09:41.288Z,2140.00
2022-08-26T10:10:41.299Z,2168.00
2022-08-26T10:11:41.259Z,2156.00
2022-08-26T10:12:41.251Z,2164.00
2022-08-26T10:13:41.240Z,2168.00
2022-08-26T10:14:48.306Z,2160.00
2022-08-26T10:15:42.236Z,2212.00
2022-08-26T10:16:42.219Z,2236.00
2022-08-26T10:17:41.199Z,2232.00
2022-08-26T10:18:41.188Z,2228.00
2022-08-26T10:19:55.536Z,2228.00
2022-08-26T10:20:42.160Z,2228.00
2022-08-26T10:21:41.157Z,2224.00
2022-08-26T10:22:41.138Z,2224.00
2022-08-26T10:24:41.116Z,2216.00
2022-08-26T10:25:41.110Z,2212.00
2022-08-26T10:26:41.098Z,2220.00
2022-08-26T10:27:51.116Z,2216.00
2022-08-26T10:28:42.070Z,2204.00
2022-08-26T10:29:41.057Z,2208.00
2022-08-26T10:30:41.039Z,2200.00
2022-08-26T10:31:41.242Z,2200.00
2022-08-26T10:32:41.407Z,2196.00
2022-08-26T10:33:41.009Z,2204.00
2022-08-26T10:34:40.998Z,2200.00
2022-08-26T10:35:40.989Z,2208.00
2022-08-26T10:37:05.175Z,2204.00
2022-08-26T10:37:41.968Z,2196.00
2022-08-26T10:38:40.959Z,2196.00
2022-08-26T10:39:40.948Z,2192.00
2022-08-26T10:40:40.970Z,2172.00
2022-08-26T10:41:40.928Z,2164.00
2022-08-26T10:42:40.919Z,2128.00
2022-08-26T10:43:41.099Z,2128.00
2022-08-26T10:44:41.059Z,2172.00
2022-08-26T10:45:40.909Z,2160.00
2022-08-26T10:46:40.956Z,2036.00
2022-08-26T10:47:40.888Z,1876.00
2022-08-26T10:48:40.837Z,1920.00
2022-08-26T10:49:40.828Z,1912.00
2022-08-26T10:50:40.810Z,1884.00
2022-08-26T10:51:40.807Z,1936.00
2022-08-26T10:52:40.788Z,1936.00
2022-08-26T10:53:42.513Z,2100.00
2022-08-26T10:54:40.768Z,2184.00
2022-08-26T10:55:40.760Z,2272.00
2022-08-26T10:56:40.749Z,2348.00
2022-08-26T10:57:40.737Z,2384.00
2022-08-26T10:58:40.722Z,2428.00
2022-08-26T10:59:40.726Z,2440.00
2022-08-26T11:00:40.751Z,2456.00
2022-08-26T11:01:41.031Z,2468.00
2022-08-26T11:02:40.679Z,2464.00
2022-08-26T11:03:41.658Z,2532.00
2022-08-26T11:04:43.399Z,2560.00
2022-08-26T11:05:41.650Z,2588.00
2022-08-26T11:06:40.628Z,2588.00
2022-08-26T11:07:40.620Z,2612.00
2022-08-26T11:08:40.609Z,2636.00
2022-08-26T11:09:40.611Z,2688.00
2022-08-26T11:10:40.591Z,2756.00
2022-08-26T11:11:40.581Z,2784.00
2022-08-26T11:12:40.559Z,2832.00
2022-08-26T11:13:41.656Z,2872.00
2022-08-26T11:14:53.507Z,2912.00
2022-08-26T11:15:41.548Z,2972.00
2022-08-26T11:16:43.321Z,3020.00
2022-08-26T11:17:40.522Z,3068.00
2022-08-26T11:18:40.491Z,3108.00
2022-08-26T11:19:59.279Z,3132.00
2022-08-26T11:20:42.166Z,3112.00
2022-08-26T11:21:40.469Z,3048.00
2022-08-26T11:22:47.630Z,3092.00
2022-08-26T11:23:41.675Z,3172.00
2022-08-26T11:24:40.420Z,3212.00
2022-08-26T11:25:40.409Z,3284.00
2022-08-26T11:26:56.436Z,3328.00
2022-08-26T11:27:41.399Z,3400.00
2022-08-26T11:28:40.376Z,3508.00
2022-08-26T11:29:40.369Z,3668.00
2022-08-26T11:30:40.350Z,3752.00
2022-08-26T11:31:40.435Z,3816.00
2022-08-26T11:32:40.351Z,3664.00
2022-08-26T11:33:40.319Z,3608.00
2022-08-26T11:34:40.310Z,3568.00
2022-08-26T11:35:40.299Z,3520.00
2022-08-26T11:36:40.297Z,3352.00
2022-08-26T11:37:40.626Z,3428.00
2022-08-26T11:38:40.289Z,3312.00
2022-08-26T11:39:44.440Z,3396.00
2022-08-26T11:40:41.303Z,3264.00
2022-08-26T11:41:40.228Z,3200.00
2022-08-26T11:42:40.219Z,3184.00
2022-08-26T11:43:40.210Z,3124.00
2022-08-26T11:44:40.570Z,3108.00
2022-08-26T11:45:40.230Z,3032.00
2022-08-26T11:46:40.169Z,2920.00
2022-08-26T11:47:40.159Z,2928.00
2022-08-26T11:48:40.159Z,2800.00
2022-08-26T11:49:40.138Z,2824.00
2022-08-26T11:50:40.130Z,2724.00
2022-08-26T11:51:41.903Z,2524.00
2022-08-26T11:52:40.124Z,2476.00
2022-08-26T11:53:40.088Z,2412.00
2022-08-26T11:54:40.099Z,2296.00
2022-08-26T11:55:40.069Z,2284.00
2022-08-26T11:56:40.059Z,2216.00
2022-08-26T11:57:40.039Z,2120.00
2022-08-26T11:58:40.037Z,1984.00
2022-08-26T11:59:40.149Z,1964.00
2022-08-26T12:00:40.028Z,1876.00
2022-08-26T12:01:40.999Z,1780.00
2022-08-26T12:02:39.988Z,1696.00
2022-08-26T12:03:40.043Z,1648.00
2022-08-26T12:04:40.012Z,1612.00
2022-08-26T12:05:39.979Z,1592.00
2022-08-26T12:06:45.287Z,1556.00
2022-08-26T12:07:42.590Z,1516.00
2022-08-26T12:08:39.920Z,1500.00
2022-08-26T12:09:39.900Z,1476.00
2022-08-26T12:10:39.897Z,1552.00
2022-08-26T12:11:39.991Z,1496.00
2022-08-26T12:12:39.871Z,1456.00
2022-08-26T12:13:39.859Z,1436.00
2022-08-26T12:14:39.851Z,1428.00
2022-08-26T12:15:39.852Z,1408.00
2022-08-26T12:16:39.940Z,1412.00
2022-08-26T12:17:39.818Z,1352.00
2022-08-26T12:18:39.808Z,1316.00
2022-08-26T12:19:39.790Z,1292.00
2022-08-26T12:20:39.789Z,1280.00
2022-08-26T12:21:39.770Z,1252.00
2022-08-26T12:22:39.770Z,1224.00
2022-08-26T12:23:40.739Z,1212.00
2022-08-26T12:24:39.738Z,1200.00
2022-08-26T12:25:39.738Z,1196.00
2022-08-26T12:26:39.749Z,1180.00
2022-08-26T12:27:39.699Z,1184.00
2022-08-26T12:28:39.690Z,1184.00
2022-08-26T12:29:39.677Z,1164.00
2022-08-26T12:30:39.669Z,1148.00
2022-08-26T12:31:39.659Z,1156.00
2022-08-26T12:32:57.398Z,1160.00
2022-08-26T12:33:40.629Z,1160.00
2022-08-26T12:34:39.620Z,1136.00
2022-08-26T12:35:39.620Z,1124.00
2022-08-26T12:36:39.610Z,1112.00
2022-08-26T12:37:39.607Z,1092.00
2022-08-26T12:38:39.568Z,1084.00